sensor_id;sensor_type;location;lat;lon;timestamp;P1;durP1;ratioP1;P2;durP2;ratioP2
33794;SDS011;51430;52.242;21.118;2023-12-07T00:12:17;42.00;;;27.20;;
33794;SDS011;51430;52.242;21.118;2023-12-07T00:15:31;39.20;;;25.30;;
33794;SDS011;51430;52.242;21.118;2023-12-07T00:18:56;43.00;;;25.50;;
33794;SDS011;51430;52.242;21.118;2023-12-07T00:22:22;39.60;;;25.80;;
33794;SDS011;51430;52.242;21.118;2023-12-07T01:04:35;46.00;;;27.40;;
33794;SDS011;51430;52.242;21.118;2023-12-07T02:05:37;47.30;;;25.90;;
33794;SDS011;51430;52.242;21.118;2023-12-07T02:23:13;51.10;;;24.60;;
33794;SDS011;51430;52.242;21.118;2023-12-07T02:43:34;47.30;;;25.00;;
33794;SDS011;51430;52.242;21.118;2023-12-07T02:46:27;41.30;;;22.60;;
33794;SDS011;51430;52.242;21.118;2023-12-07T03:28:06;36.70;;;21.20;;
33794;SDS011;51430;52.242;21.118;2023-12-07T03:31:24;37.60;;;22.20;;
33794;SDS011;51430;52.242;21.118;2023-12-07T03:35:06;40.50;;;23.10;;
33794;SDS011;51430;52.242;21.118;2023-12-07T03:49:46;41.00;;;22.60;;
33794;SDS011;51430;52.242;21.118;2023-12-07T04:03:28;39.00;;;22.70;;
33794;SDS011;51430;52.242;21.118;2023-12-07T04:06:36;37.80;;;21.50;;
33794;SDS011;51430;52.242;21.118;2023-12-07T04:13:24;36.60;;;22.40;;
33794;SDS011;51430;52.242;21.118;2023-12-07T04:17:07;40.20;;;22.30;;
33794;SDS011;51430;52.242;21.118;2023-12-07T04:34:49;38.00;;;21.60;;
33794;SDS011;51430;52.242;21.118;2023-12-07T04:38:23;43.20;;;23.30;;
33794;SDS011;51430;52.242;21.118;2023-12-07T04:42:16;38.60;;;22.50;;
33794;SDS011;51430;52.242;21.118;2023-12-07T04:45:39;41.30;;;22.50;;
33794;SDS011;51430;52.242;21.118;2023-12-07T04:49:21;37.40;;;21.90;;
33794;SDS011;51430;52.242;21.118;2023-12-07T04:52:58;37.70;;;21.60;;
33794;SDS011;51430;52.242;21.118;2023-12-07T04:56:40;35.70;;;21.20;;
33794;SDS011;51430;52.242;21.118;2023-12-07T05:10:39;40.50;;;23.40;;
33794;SDS011;51430;52.242;21.118;2023-12-07T05:13:57;37.80;;;21.10;;
33794;SDS011;51430;52.242;21.118;2023-12-07T05:17:09;36.00;;;20.90;;
33794;SDS011;51430;52.242;21.118;2023-12-07T05:20:52;37.70;;;22.10;;
33794;SDS011;51430;52.242;21.118;2023-12-07T05:49:06;33.20;;;21.30;;
33794;SDS011;51430;52.242;21.118;2023-12-07T05:51:52;34.80;;;21.00;;
33794;SDS011;51430;52.242;21.118;2023-12-07T05:55:41;32.00;;;20.00;;
33794;SDS011;51430;52.242;21.118;2023-12-07T06:10:08;35.10;;;22.60;;
33794;SDS011;51430;52.242;21.118;2023-12-07T06:23:16;30.40;;;20.00;;
33794;SDS011;51430;52.242;21.118;2023-12-07T06:25:44;37.70;;;26.10;;
33794;SDS011;51430;52.242;21.118;2023-12-07T06:28:15;38.00;;;26.80;;
33794;SDS011;51430;52.242;21.118;2023-12-07T06:30:43;40.00;;;27.60;;
33794;SDS011;51430;52.242;21.118;2023-12-07T06:33:11;38.30;;;27.90;;
33794;SDS011;51430;52.242;21.118;2023-12-07T06:35:39;39.50;;;27.00;;
33794;SDS011;51430;52.242;21.118;2023-12-07T06:38:08;36.70;;;26.60;;
33794;SDS011;51430;52.242;21.118;2023-12-07T06:40:36;37.40;;;27.20;;
33794;SDS011;51430;52.242;21.118;2023-12-07T06:43:04;36.60;;;27.30;;
33794;SDS011;51430;52.242;21.118;2023-12-07T06:45:32;35.90;;;26.40;;
33794;SDS011;51430;52.242;21.118;2023-12-07T06:48:00;36.10;;;26.30;;
33794;SDS011;51430;52.242;21.118;2023-12-07T06:50:29;35.10;;;26.20;;
33794;SDS011;51430;52.242;21.118;2023-12-07T06:52:57;36.00;;;25.70;;
33794;SDS011;51430;52.242;21.118;2023-12-07T06:55:27;38.00;;;26.10;;
33794;SDS011;51430;52.242;21.118;2023-12-07T06:57:56;33.30;;;25.70;;
33794;SDS011;51430;52.242;21.118;2023-12-07T07:00:24;35.20;;;26.60;;
33794;SDS011;51430;52.242;21.118;2023-12-07T07:02:52;35.90;;;26.50;;
33794;SDS011;51430;52.242;21.118;2023-12-07T07:05:26;34.30;;;26.10;;
33794;SDS011;51430;52.242;21.118;2023-12-07T07:07:54;35.50;;;27.10;;
33794;SDS011;51430;52.242;21.118;2023-12-07T07:10:23;32.40;;;25.10;;
33794;SDS011;51430;52.242;21.118;2023-12-07T07:12:52;34.00;;;26.80;;
33794;SDS011;51430;52.242;21.118;2023-12-07T07:15:20;34.00;;;26.60;;
33794;SDS011;51430;52.242;21.118;2023-12-07T07:17:51;35.60;;;27.00;;
33794;SDS011;51430;52.242;21.118;2023-12-07T07:20:20;35.80;;;28.40;;
33794;SDS011;51430;52.242;21.118;2023-12-07T07:22:48;36.30;;;28.10;;
33794;SDS011;51430;52.242;21.118;2023-12-07T07:25:17;36.10;;;28.30;;
33794;SDS011;51430;52.242;21.118;2023-12-07T07:27:47;35.10;;;29.10;;
33794;SDS011;51430;52.242;21.118;2023-12-07T07:30:15;35.90;;;28.90;;
33794;SDS011;51430;52.242;21.118;2023-12-07T07:32:43;36.50;;;27.60;;
33794;SDS011;51430;52.242;21.118;2023-12-07T07:35:12;33.60;;;27.00;;
33794;SDS011;51430;52.242;21.118;2023-12-07T07:37:41;33.50;;;27.30;;
33794;SDS011;51430;52.242;21.118;2023-12-07T07:40:10;31.90;;;26.40;;
33794;SDS011;51430;52.242;21.118;2023-12-07T07:42:39;33.80;;;27.00;;
33794;SDS011;51430;52.242;21.118;2023-12-07T07:45:08;34.10;;;26.90;;
33794;SDS011;51430;52.242;21.118;2023-12-07T07:47:37;34.20;;;26.60;;
33794;SDS011;51430;52.242;21.118;2023-12-07T07:50:05;33.00;;;26.80;;
33794;SDS011;51430;52.242;21.118;2023-12-07T07:52:34;32.10;;;26.20;;
33794;SDS011;51430;52.242;21.118;2023-12-07T07:55:03;32.50;;;25.30;;
33794;SDS011;51430;52.242;21.118;2023-12-07T07:57:32;31.10;;;26.00;;
33794;SDS011;51430;52.242;21.118;2023-12-07T08:00:02;31.80;;;25.50;;
33794;SDS011;51430;52.242;21.118;2023-12-07T08:02:34;30.90;;;25.50;;
33794;SDS011;51430;52.242;21.118;2023-12-07T08:05:05;32.40;;;25.90;;
33794;SDS011;51430;52.242;21.118;2023-12-07T08:07:33;32.50;;;25.70;;
33794;SDS011;51430;52.242;21.118;2023-12-07T08:10:05;34.00;;;27.00;;
33794;SDS011;51430;52.242;21.118;2023-12-07T08:12:34;31.50;;;26.00;;
33794;SDS011;51430;52.242;21.118;2023-12-07T08:15:02;31.60;;;25.90;;
33794;SDS011;51430;52.242;21.118;2023-12-07T08:17:33;31.70;;;25.70;;
33794;SDS011;51430;52.242;21.118;2023-12-07T08:20:01;31.90;;;26.10;;
33794;SDS011;51430;52.242;21.118;2023-12-07T08:22:31;31.60;;;26.70;;
33794;SDS011;51430;52.242;21.118;2023-12-07T08:24:59;30.40;;;25.40;;
33794;SDS011;51430;52.242;21.118;2023-12-07T08:27:58;29.10;;;21.80;;
33794;SDS011;51430;52.242;21.118;2023-12-07T08:30:27;29.80;;;25.40;;
33794;SDS011;51430;52.242;21.118;2023-12-07T08:32:55;30.80;;;25.90;;
33794;SDS011;51430;52.242;21.118;2023-12-07T08:35:23;34.30;;;26.70;;
33794;SDS011;51430;52.242;21.118;2023-12-07T08:37:51;33.10;;;27.10;;
33794;SDS011;51430;52.242;21.118;2023-12-07T08:40:19;31.60;;;26.30;;
33794;SDS011;51430;52.242;21.118;2023-12-07T08:42:47;33.10;;;26.40;;
33794;SDS011;51430;52.242;21.118;2023-12-07T08:45:19;30.80;;;26.50;;
33794;SDS011;51430;52.242;21.118;2023-12-07T08:47:51;34.10;;;27.60;;
33794;SDS011;51430;52.242;21.118;2023-12-07T08:50:19;33.80;;;27.30;;
33794;SDS011;51430;52.242;21.118;2023-12-07T08:54:25;32.90;;;24.20;;
33794;SDS011;51430;52.242;21.118;2023-12-07T08:58:06;37.60;;;25.10;;
33794;SDS011;51430;52.242;21.118;2023-12-07T09:00:34;33.70;;;27.70;;
33794;SDS011;51430;52.242;21.118;2023-12-07T09:03:02;35.40;;;28.70;;
33794;SDS011;51430;52.242;21.118;2023-12-07T09:05:36;35.20;;;28.50;;
33794;SDS011;51430;52.242;21.118;2023-12-07T09:08:06;35.70;;;30.00;;
33794;SDS011;51430;52.242;21.118;2023-12-07T09:10:56;29.70;;;23.80;;
33794;SDS011;51430;52.242;21.118;2023-12-07T09:13:24;33.20;;;27.80;;
33794;SDS011;51430;52.242;21.118;2023-12-07T09:15:52;36.30;;;29.70;;
33794;SDS011;51430;52.242;21.118;2023-12-07T09:18:21;36.10;;;29.80;;
33794;SDS011;51430;52.242;21.118;2023-12-07T09:20:51;34.40;;;30.00;;
33794;SDS011;51430;52.242;21.118;2023-12-07T09:23:20;35.50;;;30.60;;
33794;SDS011;51430;52.242;21.118;2023-12-07T09:25:53;36.80;;;31.10;;
33794;SDS011;51430;52.242;21.118;2023-12-07T09:34:54;34.60;;;26.10;;
33794;SDS011;51430;52.242;21.118;2023-12-07T09:37:22;35.10;;;30.90;;
33794;SDS011;51430;52.242;21.118;2023-12-07T09:39:51;36.80;;;31.20;;
33794;SDS011;51430;52.242;21.118;2023-12-07T09:42:19;36.30;;;32.20;;
33794;SDS011;51430;52.242;21.118;2023-12-07T09:44:52;38.70;;;32.00;;
33794;SDS011;51430;52.242;21.118;2023-12-07T09:47:21;37.90;;;32.20;;
33794;SDS011;51430;52.242;21.118;2023-12-07T09:50:01;40.10;;;32.10;;
33794;SDS011;51430;52.242;21.118;2023-12-07T09:52:30;39.00;;;32.90;;
33794;SDS011;51430;52.242;21.118;2023-12-07T09:55:01;37.20;;;32.40;;
33794;SDS011;51430;52.242;21.118;2023-12-07T09:57:32;37.10;;;31.60;;
33794;SDS011;51430;52.242;21.118;2023-12-07T10:00:02;37.10;;;31.80;;
33794;SDS011;51430;52.242;21.118;2023-12-07T10:02:30;37.00;;;31.70;;
33794;SDS011;51430;52.242;21.118;2023-12-07T10:05:03;39.00;;;33.20;;
33794;SDS011;51430;52.242;21.118;2023-12-07T10:07:39;37.90;;;32.80;;
33794;SDS011;51430;52.242;21.118;2023-12-07T10:10:08;40.50;;;32.80;;
33794;SDS011;51430;52.242;21.118;2023-12-07T10:12:51;37.10;;;32.40;;
33794;SDS011;51430;52.242;21.118;2023-12-07T10:15:25;35.80;;;31.40;;
33794;SDS011;51430;52.242;21.118;2023-12-07T10:17:57;36.80;;;31.20;;
33794;SDS011;51430;52.242;21.118;2023-12-07T10:20:40;35.00;;;26.80;;
33794;SDS011;51430;52.242;21.118;2023-12-07T10:23:21;35.90;;;30.60;;
33794;SDS011;51430;52.242;21.118;2023-12-07T10:26:01;37.80;;;31.10;;
33794;SDS011;51430;52.242;21.118;2023-12-07T10:28:30;37.20;;;31.50;;
33794;SDS011;51430;52.242;21.118;2023-12-07T10:30:59;36.50;;;31.80;;
33794;SDS011;51430;52.242;21.118;2023-12-07T10:33:27;35.90;;;31.10;;
33794;SDS011;51430;52.242;21.118;2023-12-07T10:35:56;37.30;;;32.70;;
33794;SDS011;51430;52.242;21.118;2023-12-07T10:38:26;38.20;;;33.40;;
33794;SDS011;51430;52.242;21.118;2023-12-07T10:41:02;39.00;;;32.10;;
33794;SDS011;51430;52.242;21.118;2023-12-07T10:44:45;35.40;;;26.20;;
33794;SDS011;51430;52.242;21.118;2023-12-07T10:48:32;36.80;;;27.30;;
33794;SDS011;51430;52.242;21.118;2023-12-07T10:52:12;33.20;;;25.90;;
33794;SDS011;51430;52.242;21.118;2023-12-07T10:56:09;34.40;;;26.30;;
33794;SDS011;51430;52.242;21.118;2023-12-07T10:59:24;34.40;;;25.90;;
33794;SDS011;51430;52.242;21.118;2023-12-07T11:13:37;33.80;;;26.60;;
33794;SDS011;51430;52.242;21.118;2023-12-07T11:16:29;29.70;;;24.10;;
33794;SDS011;51430;52.242;21.118;2023-12-07T11:19:05;34.30;;;30.00;;
33794;SDS011;51430;52.242;21.118;2023-12-07T11:21:38;33.50;;;29.30;;
33794;SDS011;51430;52.242;21.118;2023-12-07T11:24:06;35.60;;;31.40;;
33794;SDS011;51430;52.242;21.118;2023-12-07T11:26:35;34.20;;;30.00;;
33794;SDS011;51430;52.242;21.118;2023-12-07T11:31:50;32.60;;;25.30;;
33794;SDS011;51430;52.242;21.118;2023-12-07T11:37:19;33.60;;;29.90;;
33794;SDS011;51430;52.242;21.118;2023-12-07T11:39:47;36.20;;;32.20;;
33794;SDS011;51430;52.242;21.118;2023-12-07T11:42:17;35.10;;;31.40;;
33794;SDS011;51430;52.242;21.118;2023-12-07T11:44:50;36.60;;;31.80;;
33794;SDS011;51430;52.242;21.118;2023-12-07T11:48:04;31.20;;;25.40;;
33794;SDS011;51430;52.242;21.118;2023-12-07T11:51:25;32.10;;;25.80;;
33794;SDS011;51430;52.242;21.118;2023-12-07T11:55:02;30.60;;;24.90;;
33794;SDS011;51430;52.242;21.118;2023-12-07T11:57:49;31.40;;;23.60;;
33794;SDS011;51430;52.242;21.118;2023-12-07T12:01:31;31.90;;;26.00;;
33794;SDS011;51430;52.242;21.118;2023-12-07T12:03:59;36.30;;;31.70;;
33794;SDS011;51430;52.242;21.118;2023-12-07T12:06:30;35.80;;;31.80;;
33794;SDS011;51430;52.242;21.118;2023-12-07T12:08:58;34.90;;;31.10;;
33794;SDS011;51430;52.242;21.118;2023-12-07T12:11:27;35.20;;;31.40;;
33794;SDS011;51430;52.242;21.118;2023-12-07T12:16:34;31.20;;;25.00;;
33794;SDS011;51430;52.242;21.118;2023-12-07T12:19:03;37.10;;;31.30;;
33794;SDS011;51430;52.242;21.118;2023-12-07T12:21:35;35.20;;;31.40;;
33794;SDS011;51430;52.242;21.118;2023-12-07T12:24:06;37.00;;;33.00;;
33794;SDS011;51430;52.242;21.118;2023-12-07T12:26:37;37.10;;;33.10;;
33794;SDS011;51430;52.242;21.118;2023-12-07T12:29:08;36.10;;;32.00;;
33794;SDS011;51430;52.242;21.118;2023-12-07T12:31:50;36.80;;;32.10;;
33794;SDS011;51430;52.242;21.118;2023-12-07T12:34:21;36.10;;;31.20;;
33794;SDS011;51430;52.242;21.118;2023-12-07T12:37:02;35.30;;;31.50;;
33794;SDS011;51430;52.242;21.118;2023-12-07T12:40:37;34.60;;;26.90;;
33794;SDS011;51430;52.242;21.118;2023-12-07T12:44:14;33.80;;;25.30;;
33794;SDS011;51430;52.242;21.118;2023-12-07T12:46:54;34.80;;;30.20;;
33794;SDS011;51430;52.242;21.118;2023-12-07T12:49:23;35.60;;;31.30;;
33794;SDS011;51430;52.242;21.118;2023-12-07T12:52:03;36.60;;;32.00;;
33794;SDS011;51430;52.242;21.118;2023-12-07T12:54:32;33.90;;;30.20;;
33794;SDS011;51430;52.242;21.118;2023-12-07T12:57:01;35.40;;;31.60;;
33794;SDS011;51430;52.242;21.118;2023-12-07T12:59:29;35.60;;;30.80;;
33794;SDS011;51430;52.242;21.118;2023-12-07T13:01:57;37.60;;;32.50;;
33794;SDS011;51430;52.242;21.118;2023-12-07T13:04:25;37.30;;;32.30;;
33794;SDS011;51430;52.242;21.118;2023-12-07T13:07:04;38.00;;;33.40;;
33794;SDS011;51430;52.242;21.118;2023-12-07T13:09:32;38.30;;;33.20;;
33794;SDS011;51430;52.242;21.118;2023-12-07T13:12:00;38.20;;;33.40;;
33794;SDS011;51430;52.242;21.118;2023-12-07T13:14:32;36.80;;;32.80;;
33794;SDS011;51430;52.242;21.118;2023-12-07T13:18:35;37.70;;;29.60;;
33794;SDS011;51430;52.242;21.118;2023-12-07T13:22:10;38.00;;;29.40;;
33794;SDS011;51430;52.242;21.118;2023-12-07T13:26:06;32.30;;;25.70;;
33794;SDS011;51430;52.242;21.118;2023-12-07T13:29:45;33.90;;;26.60;;
33794;SDS011;51430;52.242;21.118;2023-12-07T13:33:21;35.80;;;27.40;;
33794;SDS011;51430;52.242;21.118;2023-12-07T13:36:36;31.10;;;24.10;;
33794;SDS011;51430;52.242;21.118;2023-12-07T13:39:03;36.70;;;32.50;;
33794;SDS011;51430;52.242;21.118;2023-12-07T13:41:33;37.20;;;32.80;;
33794;SDS011;51430;52.242;21.118;2023-12-07T13:44:03;38.80;;;34.40;;
33794;SDS011;51430;52.242;21.118;2023-12-07T13:46:31;39.00;;;34.30;;
33794;SDS011;51430;52.242;21.118;2023-12-07T13:48:59;39.00;;;34.20;;
33794;SDS011;51430;52.242;21.118;2023-12-07T13:51:28;37.10;;;33.20;;
33794;SDS011;51430;52.242;21.118;2023-12-07T13:53:56;40.50;;;35.70;;
33794;SDS011;51430;52.242;21.118;2023-12-07T13:56:28;40.50;;;34.60;;
33794;SDS011;51430;52.242;21.118;2023-12-07T14:00:42;38.80;;;29.80;;
33794;SDS011;51430;52.242;21.118;2023-12-07T14:04:03;38.40;;;29.30;;
33794;SDS011;51430;52.242;21.118;2023-12-07T14:07:39;34.80;;;28.20;;
33794;SDS011;51430;52.242;21.118;2023-12-07T14:10:09;39.80;;;34.50;;
33794;SDS011;51430;52.242;21.118;2023-12-07T14:12:37;39.80;;;34.60;;
33794;SDS011;51430;52.242;21.118;2023-12-07T14:15:08;42.90;;;36.20;;
33794;SDS011;51430;52.242;21.118;2023-12-07T14:17:42;43.00;;;37.90;;
33794;SDS011;51430;52.242;21.118;2023-12-07T14:20:20;43.30;;;37.30;;
33794;SDS011;51430;52.242;21.118;2023-12-07T14:23:12;40.60;;;36.20;;
33794;SDS011;51430;52.242;21.118;2023-12-07T14:25:40;44.30;;;39.40;;
33794;SDS011;51430;52.242;21.118;2023-12-07T14:28:10;46.40;;;39.30;;
33794;SDS011;51430;52.242;21.118;2023-12-07T14:36:42;39.10;;;31.00;;
33794;SDS011;51430;52.242;21.118;2023-12-07T14:40:00;42.60;;;31.40;;
33794;SDS011;51430;52.242;21.118;2023-12-07T14:43:47;40.00;;;31.10;;
33794;SDS011;51430;52.242;21.118;2023-12-07T14:47:34;41.90;;;30.50;;
33794;SDS011;51430;52.242;21.118;2023-12-07T14:51:19;40.20;;;31.90;;
33794;SDS011;51430;52.242;21.118;2023-12-07T14:54:39;40.10;;;31.10;;
33794;SDS011;51430;52.242;21.118;2023-12-07T14:58:25;41.90;;;31.80;;
33794;SDS011;51430;52.242;21.118;2023-12-07T15:02:22;40.30;;;31.10;;
33794;SDS011;51430;52.242;21.118;2023-12-07T15:16:25;41.90;;;31.20;;
33794;SDS011;51430;52.242;21.118;2023-12-07T15:20:18;42.60;;;30.60;;
33794;SDS011;51430;52.242;21.118;2023-12-07T15:34:51;39.80;;;31.60;;
33794;SDS011;51430;52.242;21.118;2023-12-07T15:37:46;39.80;;;30.10;;
33794;SDS011;51430;52.242;21.118;2023-12-07T15:41:20;83.70;;;54.80;;
33794;SDS011;51430;52.242;21.118;2023-12-07T15:45:15;56.00;;;40.70;;
33794;SDS011;51430;52.242;21.118;2023-12-07T15:48:34;43.20;;;30.20;;
33794;SDS011;51430;52.242;21.118;2023-12-07T15:52:12;38.50;;;29.50;;
33794;SDS011;51430;52.242;21.118;2023-12-07T15:55:51;40.10;;;30.20;;
33794;SDS011;51430;52.242;21.118;2023-12-07T15:59:39;38.20;;;27.90;;
33794;SDS011;51430;52.242;21.118;2023-12-07T16:03:25;39.70;;;26.40;;
33794;SDS011;51430;52.242;21.118;2023-12-07T16:07:01;39.30;;;29.00;;
33794;SDS011;51430;52.242;21.118;2023-12-07T16:10:40;40.60;;;28.00;;
33794;SDS011;51430;52.242;21.118;2023-12-07T16:14:17;38.00;;;28.30;;
33794;SDS011;51430;52.242;21.118;2023-12-07T16:17:57;37.60;;;27.90;;
33794;SDS011;51430;52.242;21.118;2023-12-07T16:21:36;39.90;;;28.50;;
33794;SDS011;51430;52.242;21.118;2023-12-07T16:25:49;39.20;;;28.20;;
33794;SDS011;51430;52.242;21.118;2023-12-07T16:30:26;38.40;;;27.70;;
33794;SDS011;51430;52.242;21.118;2023-12-07T16:34:18;35.70;;;26.00;;
33794;SDS011;51430;52.242;21.118;2023-12-07T16:37:28;36.90;;;26.60;;
33794;SDS011;51430;52.242;21.118;2023-12-07T16:41:09;39.80;;;26.50;;
33794;SDS011;51430;52.242;21.118;2023-12-07T16:45:04;38.40;;;25.60;;
33794;SDS011;51430;52.242;21.118;2023-12-07T16:49:01;38.00;;;27.80;;
33794;SDS011;51430;52.242;21.118;2023-12-07T16:52:20;34.70;;;27.20;;
33794;SDS011;51430;52.242;21.118;2023-12-07T16:54:48;41.90;;;34.20;;
33794;SDS011;51430;52.242;21.118;2023-12-07T16:57:17;40.80;;;34.20;;
33794;SDS011;51430;52.242;21.118;2023-12-07T16:59:45;39.20;;;34.10;;
33794;SDS011;51430;52.242;21.118;2023-12-07T17:02:13;39.40;;;33.40;;
33794;SDS011;51430;52.242;21.118;2023-12-07T17:04:44;39.40;;;33.80;;
33794;SDS011;51430;52.242;21.118;2023-12-07T17:07:13;40.10;;;35.10;;
33794;SDS011;51430;52.242;21.118;2023-12-07T17:09:43;46.40;;;38.10;;
33794;SDS011;51430;52.242;21.118;2023-12-07T17:12:17;45.20;;;37.40;;
33794;SDS011;51430;52.242;21.118;2023-12-07T17:14:45;43.10;;;36.90;;
33794;SDS011;51430;52.242;21.118;2023-12-07T17:21:40;41.80;;;34.70;;
33794;SDS011;51430;52.242;21.118;2023-12-07T17:27:42;40.70;;;34.30;;
33794;SDS011;51430;52.242;21.118;2023-12-07T17:45:22;37.30;;;27.90;;
33794;SDS011;51430;52.242;21.118;2023-12-07T17:47:50;42.00;;;36.60;;
33794;SDS011;51430;52.242;21.118;2023-12-07T17:50:18;43.90;;;35.90;;
33794;SDS011;51430;52.242;21.118;2023-12-07T17:52:48;41.80;;;35.20;;
33794;SDS011;51430;52.242;21.118;2023-12-07T17:55:17;44.70;;;36.20;;
33794;SDS011;51430;52.242;21.118;2023-12-07T17:58:23;44.40;;;31.70;;
33794;SDS011;51430;52.242;21.118;2023-12-07T18:00:52;43.40;;;36.00;;
33794;SDS011;51430;52.242;21.118;2023-12-07T18:03:20;44.70;;;37.50;;
33794;SDS011;51430;52.242;21.118;2023-12-07T18:05:54;47.60;;;38.60;;
33794;SDS011;51430;52.242;21.118;2023-12-07T18:08:22;46.80;;;39.30;;
33794;SDS011;51430;52.242;21.118;2023-12-07T18:10:51;46.00;;;38.00;;
33794;SDS011;51430;52.242;21.118;2023-12-07T18:13:19;46.10;;;39.30;;
33794;SDS011;51430;52.242;21.118;2023-12-07T18:15:47;45.60;;;38.20;;
33794;SDS011;51430;52.242;21.118;2023-12-07T18:18:15;45.40;;;38.90;;
33794;SDS011;51430;52.242;21.118;2023-12-07T18:20:43;47.00;;;39.80;;
33794;SDS011;51430;52.242;21.118;2023-12-07T18:23:11;47.40;;;39.90;;
33794;SDS011;51430;52.242;21.118;2023-12-07T18:25:40;46.70;;;38.80;;
33794;SDS011;51430;52.242;21.118;2023-12-07T18:28:08;46.70;;;39.00;;
33794;SDS011;51430;52.242;21.118;2023-12-07T18:30:37;43.70;;;37.10;;
33794;SDS011;51430;52.242;21.118;2023-12-07T18:33:25;40.60;;;30.20;;
33794;SDS011;51430;52.242;21.118;2023-12-07T18:35:53;46.70;;;37.10;;
33794;SDS011;51430;52.242;21.118;2023-12-07T18:38:22;48.10;;;40.30;;
33794;SDS011;51430;52.242;21.118;2023-12-07T18:47:13;41.00;;;30.50;;
33794;SDS011;51430;52.242;21.118;2023-12-07T18:50:51;38.90;;;28.50;;
33794;SDS011;51430;52.242;21.118;2023-12-07T18:54:29;36.30;;;27.70;;
33794;SDS011;51430;52.242;21.118;2023-12-07T18:57:02;39.60;;;32.60;;
33794;SDS011;51430;52.242;21.118;2023-12-07T18:59:33;42.90;;;35.80;;
33794;SDS011;51430;52.242;21.118;2023-12-07T19:02:04;44.40;;;36.10;;
33794;SDS011;51430;52.242;21.118;2023-12-07T19:04:32;42.80;;;36.30;;
33794;SDS011;51430;52.242;21.118;2023-12-07T19:07:01;44.50;;;37.40;;
33794;SDS011;51430;52.242;21.118;2023-12-07T19:09:29;41.30;;;35.80;;
33794;SDS011;51430;52.242;21.118;2023-12-07T19:12:04;45.10;;;36.10;;
33794;SDS011;51430;52.242;21.118;2023-12-07T19:14:32;43.40;;;35.60;;
33794;SDS011;51430;52.242;21.118;2023-12-07T19:18:59;41.30;;;31.70;;
33794;SDS011;51430;52.242;21.118;2023-12-07T19:21:28;41.50;;;33.40;;
33794;SDS011;51430;52.242;21.118;2023-12-07T19:23:55;41.10;;;34.40;;
33794;SDS011;51430;52.242;21.118;2023-12-07T19:26:23;40.20;;;34.30;;
33794;SDS011;51430;52.242;21.118;2023-12-07T19:28:52;60.20;;;47.20;;
33794;SDS011;51430;52.242;21.118;2023-12-07T19:31:20;45.70;;;36.70;;
33794;SDS011;51430;52.242;21.118;2023-12-07T19:33:49;39.10;;;34.00;;
33794;SDS011;51430;52.242;21.118;2023-12-07T19:36:18;43.40;;;36.70;;
33794;SDS011;51430;52.242;21.118;2023-12-07T19:38:48;39.40;;;32.60;;
33794;SDS011;51430;52.242;21.118;2023-12-07T19:41:16;37.50;;;31.60;;
33794;SDS011;51430;52.242;21.118;2023-12-07T19:43:44;37.90;;;32.00;;
33794;SDS011;51430;52.242;21.118;2023-12-07T19:52:37;34.00;;;25.10;;
33794;SDS011;51430;52.242;21.118;2023-12-07T19:55:05;36.00;;;30.10;;
33794;SDS011;51430;52.242;21.118;2023-12-07T19:57:34;37.00;;;31.50;;
33794;SDS011;51430;52.242;21.118;2023-12-07T20:00:10;33.90;;;29.20;;
33794;SDS011;51430;52.242;21.118;2023-12-07T20:02:42;40.40;;;32.80;;
33794;SDS011;51430;52.242;21.118;2023-12-07T20:05:10;35.80;;;29.90;;
33794;SDS011;51430;52.242;21.118;2023-12-07T20:07:39;36.10;;;30.70;;
33794;SDS011;51430;52.242;21.118;2023-12-07T20:10:22;35.80;;;30.20;;
33794;SDS011;51430;52.242;21.118;2023-12-07T20:12:51;33.90;;;29.60;;
33794;SDS011;51430;52.242;21.118;2023-12-07T20:15:18;36.10;;;29.50;;
33794;SDS011;51430;52.242;21.118;2023-12-07T20:17:49;34.20;;;29.70;;
33794;SDS011;51430;52.242;21.118;2023-12-07T20:20:17;34.70;;;29.30;;
33794;SDS011;51430;52.242;21.118;2023-12-07T20:22:45;34.50;;;28.60;;
33794;SDS011;51430;52.242;21.118;2023-12-07T20:25:13;34.50;;;29.30;;
33794;SDS011;51430;52.242;21.118;2023-12-07T20:27:43;34.90;;;30.10;;
33794;SDS011;51430;52.242;21.118;2023-12-07T20:30:11;32.90;;;29.20;;
33794;SDS011;51430;52.242;21.118;2023-12-07T20:32:42;35.80;;;29.90;;
33794;SDS011;51430;52.242;21.118;2023-12-07T20:35:11;35.40;;;29.30;;
33794;SDS011;51430;52.242;21.118;2023-12-07T20:37:50;35.10;;;29.00;;
33794;SDS011;51430;52.242;21.118;2023-12-07T20:40:20;33.40;;;28.20;;
33794;SDS011;51430;52.242;21.118;2023-12-07T20:42:48;34.70;;;29.30;;
33794;SDS011;51430;52.242;21.118;2023-12-07T20:45:18;35.50;;;28.90;;
33794;SDS011;51430;52.242;21.118;2023-12-07T20:47:52;31.60;;;27.70;;
33794;SDS011;51430;52.242;21.118;2023-12-07T20:50:20;34.10;;;29.80;;
33794;SDS011;51430;52.242;21.118;2023-12-07T20:52:50;36.40;;;29.40;;
33794;SDS011;51430;52.242;21.118;2023-12-07T20:55:18;34.40;;;29.80;;
33794;SDS011;51430;52.242;21.118;2023-12-07T20:57:46;34.00;;;29.00;;
33794;SDS011;51430;52.242;21.118;2023-12-07T21:00:16;32.80;;;27.20;;
33794;SDS011;51430;52.242;21.118;2023-12-07T21:02:44;34.00;;;28.60;;
33794;SDS011;51430;52.242;21.118;2023-12-07T21:05:13;33.70;;;28.30;;
33794;SDS011;51430;52.242;21.118;2023-12-07T21:07:41;35.30;;;29.50;;
33794;SDS011;51430;52.242;21.118;2023-12-07T21:10:09;35.70;;;29.50;;
33794;SDS011;51430;52.242;21.118;2023-12-07T21:12:38;35.80;;;29.90;;
33794;SDS011;51430;52.242;21.118;2023-12-07T21:15:06;35.10;;;28.90;;
33794;SDS011;51430;52.242;21.118;2023-12-07T21:19:05;31.20;;;23.10;;
33794;SDS011;51430;52.242;21.118;2023-12-07T21:21:35;36.60;;;30.30;;
33794;SDS011;51430;52.242;21.118;2023-12-07T21:24:03;40.00;;;31.80;;
33794;SDS011;51430;52.242;21.118;2023-12-07T21:26:32;39.90;;;32.20;;
33794;SDS011;51430;52.242;21.118;2023-12-07T21:29:01;37.70;;;31.20;;
33794;SDS011;51430;52.242;21.118;2023-12-07T21:31:32;37.60;;;32.00;;
33794;SDS011;51430;52.242;21.118;2023-12-07T21:34:00;39.60;;;32.60;;
33794;SDS011;51430;52.242;21.118;2023-12-07T21:36:29;32.80;;;28.80;;
33794;SDS011;51430;52.242;21.118;2023-12-07T21:38:57;34.20;;;29.80;;
33794;SDS011;51430;52.242;21.118;2023-12-07T21:41:25;35.30;;;30.00;;
33794;SDS011;51430;52.242;21.118;2023-12-07T21:43:53;34.40;;;28.60;;
33794;SDS011;51430;52.242;21.118;2023-12-07T21:46:21;32.10;;;28.40;;
33794;SDS011;51430;52.242;21.118;2023-12-07T21:48:49;34.50;;;29.30;;
33794;SDS011;51430;52.242;21.118;2023-12-07T21:51:17;32.90;;;28.90;;
33794;SDS011;51430;52.242;21.118;2023-12-07T21:53:46;35.70;;;30.40;;
33794;SDS011;51430;52.242;21.118;2023-12-07T21:56:14;37.40;;;31.20;;
33794;SDS011;51430;52.242;21.118;2023-12-07T21:58:41;38.00;;;30.80;;
33794;SDS011;51430;52.242;21.118;2023-12-07T22:01:14;35.50;;;30.40;;
33794;SDS011;51430;52.242;21.118;2023-12-07T22:03:43;36.50;;;31.80;;
33794;SDS011;51430;52.242;21.118;2023-12-07T22:06:21;42.40;;;36.40;;